Terminal Aerodrome Forecast
Issued by NWS Omaha/Valley, NE

Home | Current Version | Previous Version | Text Only | Print | Product List | Glossary On
Versions: 1 2 3 4 5 6 7 8 9 10 11 12 13 14 15 16 17 18 19 20 21 22 23 24 25 26 27 28 29 30 31 32 33 34 35 36 37 38
000
FTUS43 KOAX 282220 AAB
TAFOMA
TAF AMD
KOMA 282220Z 2822/2918 32012KT P6SM BKN025 OVC035
      TEMPO 2822/2901 BKN015
     FM290100 34006KT P6SM SCT040
     FM290600 34005KT 4SM BR SCT009 OVC020
      TEMPO 2910/2912 1/2SM FG OVC003
     FM291600 35005KT P6SM OVC015=

USA.gov is the U.S. government's official web portal to all federal, state and local government web resources and services.